»·PEaware :: APA8246 NZAA-NZDN

APA8246 :: NZAA-NZDN

FLIGHT INFORMATION

Flight Status: Arrived
Operator: Unknown
More flights by this operator :: More flights under this callsign
Pilot: Stacy K. (11621)
Aircraft: DEHAVILLAND DASH 8 200
(DH8B)
More flights by this aircraft type
Origin: NZAA Auckland Intl
New Zealand
Destination: NZDN Dunedin
New Zealand
More flights between these airports :: More routes between these airports
Route: REKI2Q KAPAI Y320 LAKAR/N0265F200 Y874 MIPAK MIPA2A
File this flight plan on PilotEdge
Remarks: PBN / D2 DOF / 180515 REG / N3101PK EET / NZZO0036 NZZC0043 SEL / CDEH OPR / APA PER / B RMK / TCAS SIMBRIEF
Altitude:
(Current/Filed)
21,000ft
Speed:
(Current/Filed)
263kts
Departed: 15-May-18 12:00 PM
Arrived: 15-May-18 02:10 PM
Distance/Time
Traveled:
573nm/2:10
Distance/Time
To Go:
Arrived

Flight Plot

Page will automatically refresh every two minutes.

Flight plan parsing failed; only flown route is shown


Map Options




Map Legend


Flown Route
Filed Route
Departure Airport
Arrival Airport
Navaid (VOR, NDB)
Fix

Horizontal Profiles

Position Reports

Time Latitude Longitude Heading Altitude Ground
Speed
15-May-18 11:39 -37.007679 174.789291 32 28ft 0kts
15-May-18 11:40 -37.007679 174.789291 32 28ft 0kts
15-May-18 11:41 -37.007679 174.789291 32 28ft 0kts
15-May-18 11:42 -37.007679 174.789291 32 28ft 0kts
15-May-18 11:43 -37.007679 174.789291 32 28ft 0kts
15-May-18 11:44 -37.007679 174.789291 32 28ft 0kts
15-May-18 11:50 -37.007679 174.789291 32 28ft 0kts
15-May-18 11:51 -37.007679 174.789291 32 28ft 0kts
15-May-18 11:52 -37.007679 174.789291 32 28ft 0kts
15-May-18 11:53 -37.007783 174.789207 33 28ft 2kts
15-May-18 11:54 -37.008261 174.788676 67 28ft 2kts
15-May-18 11:55 -37.008280 174.788439 91 28ft 0kts
15-May-18 11:56 -37.008680 174.788692 163 28ft 15kts
15-May-18 11:57 -37.010496 174.784875 252 28ft 14kts
15-May-18 11:58 -37.012040 174.779225 252 28ft 17kts
15-May-18 11:59 -37.014044 174.778401 107 28ft 15kts
15-May-18 12:00 -37.006515 174.808370 68 809ft 131kts
15-May-18 12:01 -37.025570 174.855311 149 2255ft 198kts
15-May-18 12:02 -37.080552 174.869279 186 4408ft 211kts
15-May-18 12:03 -37.137925 174.896211 158 6743ft 229kts
15-May-18 12:04 -37.196365 174.929513 157 9262ft 229kts
15-May-18 12:05 -37.256185 174.966666 155 11598ft 245kts
15-May-18 12:06 -37.317223 174.961001 226 14118ft 223kts
15-May-18 12:07 -37.355055 174.902579 245 15694ft 215kts
15-May-18 12:08 -37.387255 174.838264 246 16976ft 219kts
15-May-18 12:09 -37.419641 174.772622 247 18142ft 222kts
15-May-18 12:10 -37.452707 174.705383 247 19151ft 227kts
15-May-18 12:11 -37.486250 174.637133 247 20093ft 231kts
15-May-18 12:12 -37.520450 174.567327 246 20756ft 239kts
15-May-18 12:13 -37.570902 174.511020 215 20784ft 254kts
15-May-18 12:14 -37.638264 174.472386 211 20811ft 282kts
15-May-18 12:15 -37.712105 174.432135 210 20810ft 293kts
15-May-18 12:16 -37.787326 174.391265 210 20807ft 295kts
15-May-18 12:17 -37.862933 174.349983 210 20804ft 295kts
15-May-18 12:18 -37.938324 174.308722 210 20802ft 295kts
15-May-18 12:19 -38.013729 174.267401 210 20799ft 295kts
15-May-18 12:20 -38.089144 174.226150 210 20795ft 295kts
15-May-18 12:21 -38.164442 174.184660 210 20792ft 295kts
15-May-18 12:22 -38.239704 174.143096 210 20788ft 295kts
15-May-18 12:23 -38.314976 174.101454 210 20784ft 295kts
15-May-18 12:24 -38.390197 174.059730 210 20780ft 295kts
15-May-18 12:25 -38.465393 174.017923 210 20775ft 295kts
15-May-18 12:26 -38.540587 173.976021 210 20770ft 295kts
15-May-18 12:27 -38.616036 173.933880 210 20765ft 295kts
15-May-18 12:28 -38.691151 173.891809 210 20760ft 295kts
15-May-18 12:29 -38.766254 173.849562 210 20755ft 294kts
15-May-18 12:30 -38.841276 173.807213 210 20750ft 294kts
15-May-18 12:31 -38.916270 173.764784 210 20744ft 295kts
15-May-18 12:32 -38.991284 173.722325 210 20740ft 294kts
15-May-18 12:33 -39.067529 173.682898 204 20735ft 297kts
15-May-18 12:34 -39.146620 173.650589 203 20729ft 298kts
15-May-18 12:35 -39.226044 173.618440 203 20724ft 298kts
15-May-18 12:36 -39.305148 173.586177 203 20719ft 298kts
15-May-18 12:37 -39.384202 173.553673 203 20714ft 298kts
15-May-18 12:38 -39.463225 173.521087 203 20710ft 298kts
15-May-18 12:39 -39.542202 173.488441 203 20705ft 298kts
15-May-18 12:40 -39.621219 173.455718 203 20701ft 298kts
15-May-18 12:41 -39.700285 173.422868 204 20697ft 298kts
15-May-18 12:42 -39.779333 173.389967 204 20693ft 298kts
15-May-18 12:43 -39.858253 173.356946 204 20690ft 298kts
15-May-18 12:44 -39.937160 173.323811 204 20687ft 298kts
15-May-18 12:45 -40.016030 173.290669 204 20684ft 298kts
15-May-18 12:46 -40.094822 173.257259 203 20681ft 297kts
15-May-18 12:47 -40.173824 173.223972 203 20679ft 297kts
15-May-18 12:48 -40.252543 173.190716 203 20676ft 297kts
15-May-18 12:49 -40.331256 173.157613 203 20674ft 297kts
15-May-18 12:50 -40.409935 173.124236 203 20672ft 297kts
15-May-18 12:51 -40.488585 173.090769 203 20671ft 297kts
15-May-18 12:52 -40.567106 173.057299 203 20669ft 297kts
15-May-18 12:53 -40.645634 173.023668 203 20668ft 296kts
15-May-18 12:54 -40.724026 172.989720 203 20667ft 296kts
15-May-18 12:55 -40.802492 172.955891 203 20666ft 296kts
15-May-18 12:56 -40.880928 172.922099 203 20666ft 296kts
15-May-18 12:57 -40.946343 172.893910 203 20665ft 296kts
15-May-18 12:58 -41.024603 172.860034 203 20665ft 296kts
15-May-18 12:59 -41.102882 172.826288 203 20665ft 296kts
15-May-18 13:00 -41.181004 172.792359 202 20665ft 295kts
15-May-18 13:01 -41.259160 172.758404 202 20665ft 295kts
15-May-18 13:02 -41.337286 172.724240 202 20665ft 295kts
15-May-18 13:03 -41.415462 172.689663 203 20654ft 295kts
15-May-18 13:04 -41.493202 172.655289 202 20654ft 294kts
15-May-18 13:05 -41.571004 172.621052 202 20655ft 294kts
15-May-18 13:06 -41.648685 172.586796 202 20656ft 294kts
15-May-18 13:07 -41.726305 172.552454 202 20657ft 294kts
15-May-18 13:08 -41.803898 172.518185 202 20662ft 293kts
15-May-18 13:09 -41.881494 172.483721 202 20662ft 293kts
15-May-18 13:10 -41.959153 172.448940 202 20663ft 293kts
15-May-18 13:11 -42.036372 172.414228 202 20663ft 293kts
15-May-18 13:12 -42.113912 172.379337 202 20665ft 293kts
15-May-18 13:13 -42.191141 172.344419 202 20665ft 293kts
15-May-18 13:14 -42.268382 172.309531 202 20666ft 292kts
15-May-18 13:15 -42.345730 172.274593 202 20667ft 293kts
15-May-18 13:16 -42.422960 172.239637 202 20667ft 293kts
15-May-18 13:17 -42.500272 172.204532 202 20667ft 293kts
15-May-18 13:18 -42.577479 172.169242 202 20669ft 293kts
15-May-18 13:19 -42.654688 172.133857 202 20668ft 293kts
15-May-18 13:20 -42.732173 172.098396 202 20669ft 293kts
15-May-18 13:21 -42.809466 172.063126 202 20669ft 293kts
15-May-18 13:22 -42.886679 172.027667 203 20669ft 293kts
15-May-18 13:23 -42.963911 171.992178 203 20669ft 293kts
15-May-18 13:24 -43.041071 171.956431 203 20670ft 293kts
15-May-18 13:25 -43.118303 171.920640 203 20669ft 293kts
15-May-18 13:26 -43.195370 171.884634 203 20669ft 292kts
15-May-18 13:27 -43.272561 171.848593 204 20669ft 292kts
15-May-18 13:28 -43.349604 171.812393 203 20670ft 293kts
15-May-18 13:29 -43.426680 171.776227 203 20669ft 292kts
15-May-18 13:30 -43.503898 171.739906 204 20670ft 292kts
15-May-18 13:31 -43.580699 171.703613 204 20671ft 292kts
15-May-18 13:32 -43.657963 171.667069 204 20671ft 293kts
15-May-18 13:33 -43.734987 171.630537 204 20671ft 293kts
15-May-18 13:34 -43.812015 171.593902 204 20671ft 293kts
15-May-18 13:35 -43.889031 171.557175 204 20672ft 292kts
15-May-18 13:36 -43.966038 171.520354 204 20672ft 292kts
15-May-18 13:37 -44.043020 171.483370 204 20672ft 292kts
15-May-18 13:38 -44.119941 171.446362 204 20673ft 292kts
15-May-18 13:39 -44.196894 171.409122 204 20673ft 292kts
15-May-18 13:40 -44.273793 171.371978 204 20674ft 293kts
15-May-18 13:41 -44.350974 171.334590 204 20675ft 293kts
15-May-18 13:42 -44.427938 171.297195 204 20675ft 293kts
15-May-18 13:43 -44.504696 171.259788 205 20676ft 293kts
15-May-18 13:44 -44.581861 171.221883 205 20677ft 293kts
15-May-18 13:45 -44.658757 171.184180 205 20677ft 293kts
15-May-18 13:46 -44.735850 171.146362 205 20677ft 293kts
15-May-18 13:47 -44.810925 171.109591 205 20033ft 271kts
15-May-18 13:48 -44.880013 171.075492 205 18828ft 261kts
15-May-18 13:49 -44.948562 171.041305 205 17660ft 260kts
15-May-18 13:50 -45.016354 171.007777 204 16658ft 256kts
15-May-18 13:51 -45.083371 170.974395 204 15661ft 254kts
15-May-18 13:52 -45.150272 170.940804 204 14661ft 254kts
15-May-18 13:53 -45.216060 170.908000 203 13660ft 247kts
15-May-18 13:54 -45.279851 170.875283 208 12658ft 240kts
15-May-18 13:55 -45.337178 170.829704 214 11662ft 234kts
15-May-18 13:56 -45.392928 170.783670 213 10661ft 230kts
15-May-18 13:57 -45.447924 170.738134 213 9654ft 226kts
15-May-18 13:58 -45.501811 170.693370 213 8657ft 222kts
15-May-18 13:59 -45.554870 170.649304 213 7660ft 219kts
15-May-18 14:00 -45.607132 170.605870 213 6661ft 215kts
15-May-18 14:01 -45.658496 170.562947 212 5681ft 212kts
15-May-18 14:02 -45.710068 170.522430 207 4702ft 210kts
15-May-18 14:03 -45.747291 170.496789 207 4095ft 203kts
15-May-18 14:04 -45.797799 170.461357 213 3893ft 200kts
15-May-18 14:05 -45.828957 170.414402 237 3111ft 135kts
15-May-18 14:06 -45.850240 170.364565 237 2306ft 139kts
15-May-18 14:07 -45.871735 170.319669 235 1911ft 132kts
15-May-18 14:08 -45.892658 170.275154 236 1165ft 135kts
15-May-18 14:09 -45.912128 170.233790 235 372ft 115kts
15-May-18 14:10 -45.928667 170.198478 235 9ft 33kts
15-May-18 14:11 -45.927343 170.201357 51 9ft 8kts
15-May-18 14:12 -45.925072 170.200149 10 9ft 6kts
15-May-18 14:13 -45.924148 170.200451 71 9ft 0kts
15-May-18 14:14 -45.924148 170.200451 71 9ft 0kts
15-May-18 14:15 -45.924148 170.200451 71 9ft 0kts
15-May-18 14:16 -45.924148 170.200451 71 9ft 0kts
15-May-18 14:17 -45.924148 170.200451 71 9ft 0kts
15-May-18 14:18 -45.924148 170.200451 71 9ft 0kts
15-May-18 14:19 -45.924148 170.200451 71 9ft 0kts
15-May-18 14:20 -45.924148 170.200451 71 9ft 0kts
15-May-18 14:21 -45.924148 170.200451 71 9ft 0kts
15-May-18 14:22 -45.924148 170.200451 71 9ft 0kts
15-May-18 14:23 -45.924148 170.200451 71 9ft 0kts
15-May-18 14:24 -45.924148 170.200451 71 9ft 0kts

Navigation Log

Ident Type
Flight plan parsing failed, navigation log unavailable